createdAt,value
2023-05-07T00:03:13.994Z,4.00
2023-05-07T00:08:13.865Z,3.90
2023-05-07T00:13:13.861Z,4.59
2023-05-07T00:18:13.873Z,4.30
2023-05-07T00:23:13.670Z,4.00
2023-05-07T00:28:13.608Z,4.00
2023-05-07T00:33:13.538Z,5.30
2023-05-07T00:38:13.477Z,4.19
2023-05-07T00:43:13.406Z,4.69
2023-05-07T00:48:13.334Z,4.59
2023-05-07T00:53:13.271Z,3.90
2023-05-07T00:58:13.209Z,4.50
2023-05-07T01:03:13.145Z,4.90
2023-05-07T01:08:13.061Z,4.50
2023-05-07T01:13:13.038Z,5.40
2023-05-07T01:18:12.994Z,5.80
2023-05-07T01:23:12.874Z,5.59
2023-05-07T01:28:12.802Z,6.80
2023-05-07T01:33:12.744Z,5.80
2023-05-07T01:38:12.670Z,6.09
2023-05-07T01:43:12.616Z,6.59
2023-05-07T01:48:12.556Z,6.80
2023-05-07T01:53:12.517Z,6.59
2023-05-07T01:58:12.403Z,5.50
2023-05-07T02:03:12.416Z,5.09
2023-05-07T02:08:12.270Z,4.80
2023-05-07T02:13:12.269Z,4.80
2023-05-07T02:18:12.132Z,4.90
2023-05-07T02:23:12.077Z,4.80
2023-05-07T02:28:11.998Z,5.30
2023-05-07T02:33:12.014Z,4.30
2023-05-07T02:38:11.859Z,4.30
2023-05-07T02:43:11.811Z,5.19
2023-05-07T02:48:11.726Z,4.69
2023-05-07T02:53:11.668Z,5.09
2023-05-07T02:58:11.594Z,5.90
2023-05-07T03:03:11.608Z,5.59
2023-05-07T03:08:11.457Z,6.00
2023-05-07T03:13:11.431Z,5.40
2023-05-07T03:18:11.517Z,6.19
2023-05-07T03:23:11.460Z,6.69
2023-05-07T03:28:11.484Z,5.90
2023-05-07T03:33:11.480Z,6.50
2023-05-07T03:38:11.500Z,6.09
2023-05-07T03:43:11.487Z,7.00
2023-05-07T03:48:10.951Z,7.40
2023-05-07T03:53:10.874Z,7.19
2023-05-07T03:58:10.773Z,7.59
2023-05-07T04:03:10.801Z,7.59
2023-05-07T04:08:10.646Z,7.30
2023-05-07T04:13:10.657Z,7.59
2023-05-07T04:18:10.508Z,8.80
2023-05-07T04:23:10.458Z,8.19
2023-05-07T04:28:10.376Z,8.50
2023-05-07T04:33:10.368Z,8.60
2023-05-07T04:38:10.237Z,9.00
2023-05-07T04:43:10.195Z,9.10
2023-05-07T04:48:10.181Z,8.89
2023-05-07T04:53:10.048Z,8.30
2023-05-07T04:58:09.975Z,9.69
2023-05-07T05:03:10.005Z,9.10
2023-05-07T05:08:09.834Z,9.19
2023-05-07T05:13:09.796Z,8.10
2023-05-07T05:18:09.713Z,9.30
2023-05-07T05:23:09.654Z,8.69
2023-05-07T05:28:09.604Z,9.30
2023-05-07T05:33:09.586Z,9.60
2023-05-07T05:38:09.455Z,8.50
2023-05-07T05:43:09.418Z,9.00
2023-05-07T05:48:09.328Z,8.50
2023-05-07T05:53:09.239Z,8.30
2023-05-07T05:58:09.166Z,7.19
2023-05-07T06:03:09.124Z,7.50
2023-05-07T06:08:09.043Z,7.30
2023-05-07T06:13:09.068Z,7.59
2023-05-07T06:18:08.922Z,7.90
2023-05-07T06:23:08.846Z,7.50
2023-05-07T06:28:08.758Z,7.80
2023-05-07T06:33:08.790Z,6.69
2023-05-07T06:38:08.623Z,7.50
2023-05-07T06:43:08.576Z,7.00
2023-05-07T06:48:08.560Z,7.40
2023-05-07T06:53:08.440Z,7.30
2023-05-07T06:58:08.357Z,7.80
2023-05-07T07:03:08.318Z,7.19
2023-05-07T07:08:08.218Z,7.09
2023-05-07T07:13:08.176Z,6.69
2023-05-07T07:18:08.110Z,5.90
2023-05-07T07:23:08.028Z,7.09
2023-05-07T07:28:07.955Z,6.90
2023-05-07T07:33:07.915Z,7.09
2023-05-07T07:38:07.813Z,7.19
2023-05-07T07:43:07.799Z,6.69
2023-05-07T07:48:07.721Z,6.69
2023-05-07T07:53:07.676Z,6.59
2023-05-07T07:58:07.551Z,5.59
2023-05-07T08:03:07.711Z,6.00
2023-05-07T08:08:07.424Z,5.30
2023-05-07T08:13:07.488Z,5.80
2023-05-07T08:18:07.330Z,5.80
2023-05-07T08:23:07.286Z,5.59
2023-05-07T08:28:09.608Z,5.59
2023-05-07T08:33:07.120Z,5.90
2023-05-07T08:38:07.024Z,5.90
2023-05-07T08:43:06.956Z,5.50
2023-05-07T08:48:06.959Z,5.50
2023-05-07T08:53:06.831Z,4.69
2023-05-07T08:58:06.758Z,5.19
2023-05-07T09:03:06.824Z,4.50
2023-05-07T09:08:06.617Z,3.90
2023-05-07T09:13:06.608Z,4.30
2023-05-07T09:18:06.512Z,4.30
2023-05-07T09:23:06.423Z,5.69
2023-05-07T09:28:06.349Z,5.19
2023-05-07T09:33:06.334Z,5.69
2023-05-07T09:38:06.212Z,5.00
2023-05-07T09:43:06.154Z,5.30
2023-05-07T09:48:06.105Z,5.50
2023-05-07T09:53:06.021Z,5.00
2023-05-07T09:58:05.957Z,4.90
2023-05-07T10:03:05.978Z,4.40
2023-05-07T10:08:05.862Z,5.00
2023-05-07T10:13:05.803Z,5.19
2023-05-07T10:18:05.808Z,4.19
2023-05-07T10:23:05.626Z,4.40
2023-05-07T10:28:05.552Z,4.09
2023-05-07T10:33:05.538Z,4.00
2023-05-07T10:38:05.504Z,3.70
2023-05-07T10:43:06.459Z,3.79
2023-05-07T10:48:11.174Z,3.29
2023-05-07T10:53:06.272Z,3.70
2023-05-07T10:58:05.153Z,4.40
2023-05-07T11:03:05.158Z,4.19
2023-05-07T11:08:05.036Z,4.30
2023-05-07T11:13:05.023Z,3.90
2023-05-07T11:18:04.979Z,4.09
2023-05-07T11:23:04.821Z,4.00
2023-05-07T11:28:04.773Z,4.19
2023-05-07T11:33:04.781Z,3.79
2023-05-07T11:38:04.618Z,3.90
2023-05-07T11:43:04.543Z,3.59
2023-05-07T11:48:04.567Z,3.70
2023-05-07T11:53:04.409Z,4.09
2023-05-07T11:58:04.354Z,4.30
2023-05-07T12:03:04.423Z,3.40
2023-05-07T12:08:04.216Z,3.09
2023-05-07T12:13:04.178Z,2.70
2023-05-07T12:18:04.155Z,3.09
2023-05-07T12:23:04.021Z,3.59
2023-05-07T12:28:03.951Z,3.50
2023-05-07T12:33:03.919Z,3.09
2023-05-07T12:38:03.833Z,2.79
2023-05-07T12:43:03.770Z,2.79
2023-05-07T12:48:03.743Z,2.20
2023-05-07T12:53:03.623Z,2.70
2023-05-07T12:58:03.562Z,2.90
2023-05-07T13:03:03.654Z,2.79
2023-05-07T13:08:03.432Z,2.90
2023-05-07T13:13:03.397Z,3.09
2023-05-07T13:18:03.356Z,3.79
2023-05-07T13:23:03.208Z,3.59
2023-05-07T13:28:10.993Z,3.20
2023-05-07T13:33:03.144Z,3.20
2023-05-07T13:38:03.010Z,3.79
2023-05-07T13:43:02.960Z,3.50
2023-05-07T13:48:02.938Z,3.50
2023-05-07T13:53:02.798Z,3.00
2023-05-07T13:58:07.160Z,3.59
2023-05-07T14:03:02.723Z,3.59
2023-05-07T14:08:02.629Z,3.70
2023-05-07T14:13:02.597Z,3.50
2023-05-07T14:18:02.527Z,3.59
2023-05-07T14:23:02.399Z,3.29
2023-05-07T14:28:02.346Z,3.79
2023-05-07T14:33:02.310Z,3.20
2023-05-07T14:38:02.217Z,4.09
2023-05-07T14:43:02.127Z,3.50
2023-05-07T14:48:02.172Z,3.40
2023-05-07T14:53:02.002Z,2.90
2023-05-07T14:58:01.958Z,2.59
2023-05-07T15:03:01.937Z,2.29
2023-05-07T15:08:01.817Z,2.79
2023-05-07T15:13:01.782Z,2.59
2023-05-07T15:18:01.737Z,2.50
2023-05-07T15:23:01.614Z,2.70
2023-05-07T15:28:01.549Z,2.50
2023-05-07T15:33:01.521Z,2.50
2023-05-07T15:38:01.415Z,1.70
2023-05-07T15:43:01.361Z,2.00
2023-05-07T15:48:01.325Z,2.59
2023-05-07T15:53:01.211Z,1.90
2023-05-07T15:58:01.183Z,2.09
2023-05-07T16:03:01.179Z,2.40
2023-05-07T16:08:01.043Z,2.79
2023-05-07T16:13:00.972Z,2.50
2023-05-07T16:18:00.985Z,2.09
2023-05-07T16:23:00.826Z,2.29
2023-05-07T16:28:00.767Z,1.79
2023-05-07T16:33:00.757Z,2.09
2023-05-07T16:38:00.639Z,2.50
2023-05-07T16:43:00.564Z,2.29
2023-05-07T16:48:00.613Z,2.09
2023-05-07T16:53:00.413Z,2.29
2023-05-07T16:58:00.370Z,2.09
2023-05-07T17:03:00.381Z,2.29
2023-05-07T17:08:00.222Z,2.20
2023-05-07T17:13:00.215Z,2.59
2023-05-07T17:18:00.219Z,2.29
2023-05-07T17:23:00.025Z,2.20
2023-05-07T17:27:59.953Z,2.50
2023-05-07T17:33:09.350Z,2.70
2023-05-07T17:38:00.842Z,3.00
2023-05-07T17:42:59.811Z,3.40
2023-05-07T17:47:59.753Z,3.20
2023-05-07T17:52:59.610Z,3.09
2023-05-07T17:57:59.561Z,2.90
2023-05-07T18:02:59.555Z,3.00
2023-05-07T18:07:59.429Z,3.00
2023-05-07T18:12:59.431Z,2.79
2023-05-07T18:17:59.392Z,3.00
2023-05-07T18:22:59.202Z,3.59
2023-05-07T18:27:59.147Z,2.70
2023-05-07T18:32:59.149Z,3.20
2023-05-07T18:37:59.023Z,3.20
2023-05-07T18:42:58.940Z,3.09
2023-05-07T18:47:58.929Z,3.70
2023-05-07T18:52:58.798Z,3.59
2023-05-07T18:57:58.743Z,3.59
2023-05-07T19:02:58.708Z,3.50
2023-05-07T19:07:58.619Z,3.20
2023-05-07T19:12:58.564Z,3.90
2023-05-07T19:17:58.515Z,4.00
2023-05-07T19:22:58.413Z,3.59
2023-05-07T19:27:58.344Z,4.30
2023-05-07T19:32:58.315Z,4.30
2023-05-07T19:37:58.218Z,4.50
2023-05-07T19:42:58.146Z,5.50
2023-05-07T19:47:58.120Z,4.09
2023-05-07T19:52:58.011Z,4.00
2023-05-07T19:57:57.942Z,4.19
2023-05-07T20:02:57.932Z,4.30
2023-05-07T20:07:57.808Z,3.90
2023-05-07T20:12:57.791Z,3.90
2023-05-07T20:17:57.706Z,4.00
2023-05-07T20:22:57.604Z,3.79
2023-05-07T20:27:57.544Z,3.79
2023-05-07T20:32:57.504Z,3.50
2023-05-07T20:37:57.463Z,3.90
2023-05-07T20:42:57.337Z,3.20
2023-05-07T20:47:57.344Z,4.19
2023-05-07T20:52:57.221Z,3.40
2023-05-07T20:57:57.148Z,3.79
2023-05-07T21:02:57.240Z,3.50
2023-05-07T21:07:57.009Z,3.79
2023-05-07T21:12:56.984Z,4.00
2023-05-07T21:17:56.947Z,4.19
2023-05-07T21:22:56.851Z,3.70
2023-05-07T21:27:56.741Z,4.00
2023-05-07T21:32:56.684Z,4.40
2023-05-07T21:37:56.624Z,3.59
2023-05-07T21:42:56.530Z,4.09
2023-05-07T21:47:56.499Z,3.90
2023-05-07T21:52:56.400Z,4.19
2023-05-07T21:58:04.866Z,4.00
2023-05-07T22:02:56.409Z,4.30
2023-05-07T22:07:56.222Z,4.19
2023-05-07T22:12:56.203Z,4.00
2023-05-07T22:17:56.133Z,4.30
2023-05-07T22:22:56.023Z,4.69
2023-05-07T22:27:55.941Z,4.59
2023-05-07T22:32:55.892Z,4.59
2023-05-07T22:37:55.819Z,4.50
2023-05-07T22:42:55.745Z,4.40
2023-05-07T22:47:55.689Z,4.40
2023-05-07T22:52:55.615Z,4.50
2023-05-07T22:57:55.548Z,4.90
2023-05-07T23:02:55.513Z,4.80
2023-05-07T23:07:55.412Z,4.40
2023-05-07T23:12:55.380Z,5.00
2023-05-07T23:17:55.327Z,5.19
2023-05-07T23:22:55.203Z,5.00
2023-05-07T23:27:55.146Z,4.50
2023-05-07T23:32:55.111Z,5.00
2023-05-07T23:37:55.010Z,5.09
2023-05-07T23:42:54.948Z,5.19
2023-05-07T23:47:54.921Z,4.59
2023-05-07T23:52:54.816Z,4.50
2023-05-07T23:57:54.755Z,4.59
